sensor_id;sensor_type;location;lat;lon;timestamp;P1;durP1;ratioP1;P2;durP2;ratioP2
4325;SDS011;58429;49.826;10.880;2022-12-18T00:00:20;43.4;;;29.1;;
4325;SDS011;58429;49.826;10.880;2022-12-18T00:01:21;39.4;;;23.4;;
4325;SDS011;58429;49.826;10.880;2022-12-18T00:02:20;39.4;;;23.4;;
4325;SDS011;58429;49.826;10.880;2022-12-18T00:03:20;39.4;;;23.4;;
4325;SDS011;58429;49.826;10.880;2022-12-18T00:04:21;37.5;;;21.2;;
4325;SDS011;58429;49.826;10.880;2022-12-18T00:05:21;37.5;;;21.2;;
4325;SDS011;58429;49.826;10.880;2022-12-18T00:06:21;37.5;;;21.2;;
4325;SDS011;58429;49.826;10.880;2022-12-18T00:07:21;36.9;;;20.8;;
4325;SDS011;58429;49.826;10.880;2022-12-18T00:08:20;36.9;;;20.8;;
4325;SDS011;58429;49.826;10.880;2022-12-18T00:09:20;36.9;;;20.8;;
4325;SDS011;58429;49.826;10.880;2022-12-18T00:10:20;39.1;;;22.4;;
4325;SDS011;58429;49.826;10.880;2022-12-18T00:11:22;39.1;;;22.4;;
4325;SDS011;58429;49.826;10.880;2022-12-18T00:12:20;39.1;;;22.4;;
4325;SDS011;58429;49.826;10.880;2022-12-18T00:13:21;41.7;;;23.8;;
4325;SDS011;58429;49.826;10.880;2022-12-18T00:14:20;41.7;;;23.8;;
4325;SDS011;58429;49.826;10.880;2022-12-18T00:15:20;41.7;;;23.8;;
4325;SDS011;58429;49.826;10.880;2022-12-18T00:16:21;45.2;;;24.4;;
4325;SDS011;58429;49.826;10.880;2022-12-18T00:17:21;45.2;;;24.4;;
4325;SDS011;58429;49.826;10.880;2022-12-18T00:18:20;45.2;;;24.4;;
4325;SDS011;58429;49.826;10.880;2022-12-18T00:19:21;45.3;;;24;;
4325;SDS011;58429;49.826;10.880;2022-12-18T00:20:20;45.3;;;24;;
4325;SDS011;58429;49.826;10.880;2022-12-18T00:21:21;45.3;;;24;;
4325;SDS011;58429;49.826;10.880;2022-12-18T00:22:21;45.3;;;24;;
4325;SDS011;58429;49.826;10.880;2022-12-18T00:23:21;48.7;;;27.2;;
4325;SDS011;58429;49.826;10.880;2022-12-18T00:24:20;48.7;;;27.2;;
4325;SDS011;58429;49.826;10.880;2022-12-18T00:25:21;48.7;;;27.2;;
4325;SDS011;58429;49.826;10.880;2022-12-18T00:26:21;39.4;;;23.2;;
4325;SDS011;58429;49.826;10.880;2022-12-18T00:27:21;39.4;;;23.2;;
4325;SDS011;58429;49.826;10.880;2022-12-18T00:28:20;39.4;;;23.2;;
4325;SDS011;58429;49.826;10.880;2022-12-18T00:29:20;42.3;;;24.8;;
4325;SDS011;58429;49.826;10.880;2022-12-18T00:30:21;42.3;;;24.8;;
4325;SDS011;58429;49.826;10.880;2022-12-18T00:31:21;42.3;;;24.8;;
4325;SDS011;58429;49.826;10.880;2022-12-18T00:32:21;46.1;;;26.6;;
4325;SDS011;58429;49.826;10.880;2022-12-18T00:33:21;46.1;;;26.6;;
4325;SDS011;58429;49.826;10.880;2022-12-18T00:34:20;46.1;;;26.6;;
4325;SDS011;58429;49.826;10.880;2022-12-18T00:35:21;39.2;;;24.4;;
4325;SDS011;58429;49.826;10.880;2022-12-18T00:36:21;39.2;;;24.4;;
4325;SDS011;58429;49.826;10.880;2022-12-18T00:37:20;39.2;;;24.4;;
4325;SDS011;58429;49.826;10.880;2022-12-18T00:38:21;44.3;;;23.8;;
4325;SDS011;58429;49.826;10.880;2022-12-18T00:39:20;44.3;;;23.8;;
4325;SDS011;58429;49.826;10.880;2022-12-18T00:40:21;44.3;;;23.8;;
4325;SDS011;58429;49.826;10.880;2022-12-18T00:41:21;41.6;;;24.3;;
4325;SDS011;58429;49.826;10.880;2022-12-18T00:42:20;41.6;;;24.3;;
4325;SDS011;58429;49.826;10.880;2022-12-18T00:43:21;41.6;;;24.3;;
4325;SDS011;58429;49.826;10.880;2022-12-18T00:44:21;39.1;;;22.3;;
4325;SDS011;58429;49.826;10.880;2022-12-18T00:45:21;39.1;;;22.3;;
4325;SDS011;58429;49.826;10.880;2022-12-18T00:46:21;39.1;;;22.3;;
4325;SDS011;58429;49.826;10.880;2022-12-18T00:47:20;39.2;;;21.5;;
4325;SDS011;58429;49.826;10.880;2022-12-18T00:48:21;39.2;;;21.5;;
4325;SDS011;58429;49.826;10.880;2022-12-18T00:49:21;39.2;;;21.5;;
4325;SDS011;58429;49.826;10.880;2022-12-18T00:50:21;41.2;;;23;;
4325;SDS011;58429;49.826;10.880;2022-12-18T00:51:21;41.2;;;23;;
4325;SDS011;58429;49.826;10.880;2022-12-18T00:52:21;41.2;;;23;;
4325;SDS011;58429;49.826;10.880;2022-12-18T00:53:21;46.3;;;25.5;;
4325;SDS011;58429;49.826;10.880;2022-12-18T00:54:21;46.3;;;25.5;;
4325;SDS011;58429;49.826;10.880;2022-12-18T00:55:20;46.3;;;25.5;;
4325;SDS011;58429;49.826;10.880;2022-12-18T00:56:21;45.6;;;25.3;;
4325;SDS011;58429;49.826;10.880;2022-12-18T00:57:21;45.6;;;25.3;;
4325;SDS011;58429;49.826;10.880;2022-12-18T00:58:21;45.6;;;25.3;;
4325;SDS011;58429;49.826;10.880;2022-12-18T00:59:21;43.4;;;23.6;;
4325;SDS011;58429;49.826;10.880;2022-12-18T01:00:21;43.4;;;23.6;;
4325;SDS011;58429;49.826;10.880;2022-12-18T01:01:20;43.4;;;23.6;;
4325;SDS011;58429;49.826;10.880;2022-12-18T01:02:21;43.3;;;23.6;;
4325;SDS011;58429;49.826;10.880;2022-12-18T01:03:21;43.3;;;23.6;;
4325;SDS011;58429;49.826;10.880;2022-12-18T01:04:20;43.3;;;23.6;;
4325;SDS011;58429;49.826;10.880;2022-12-18T01:05:21;38.8;;;22.5;;
4325;SDS011;58429;49.826;10.880;2022-12-18T01:06:21;38.8;;;22.5;;
4325;SDS011;58429;49.826;10.880;2022-12-18T01:07:21;38.8;;;22.5;;
4325;SDS011;58429;49.826;10.880;2022-12-18T01:08:21;42.4;;;23.5;;
4325;SDS011;58429;49.826;10.880;2022-12-18T01:09:21;42.4;;;23.5;;
4325;SDS011;58429;49.826;10.880;2022-12-18T01:10:21;42.4;;;23.5;;
4325;SDS011;58429;49.826;10.880;2022-12-18T01:11:21;39.5;;;22.3;;
4325;SDS011;58429;49.826;10.880;2022-12-18T01:12:20;39.5;;;22.3;;
4325;SDS011;58429;49.826;10.880;2022-12-18T01:13:21;39.5;;;22.3;;
4325;SDS011;58429;49.826;10.880;2022-12-18T01:14:21;40.2;;;22.1;;
4325;SDS011;58429;49.826;10.880;2022-12-18T01:15:20;40.2;;;22.1;;
4325;SDS011;58429;49.826;10.880;2022-12-18T01:16:21;40.2;;;22.1;;
4325;SDS011;58429;49.826;10.880;2022-12-18T01:17:21;40.2;;;24.3;;
4325;SDS011;58429;49.826;10.880;2022-12-18T01:18:21;40.2;;;24.3;;
4325;SDS011;58429;49.826;10.880;2022-12-18T01:19:20;40.2;;;24.3;;
4325;SDS011;58429;49.826;10.880;2022-12-18T01:20:20;48.9;;;25.4;;
4325;SDS011;58429;49.826;10.880;2022-12-18T01:21:21;48.9;;;25.4;;
4325;SDS011;58429;49.826;10.880;2022-12-18T01:22:20;48.9;;;25.4;;
4325;SDS011;58429;49.826;10.880;2022-12-18T01:23:20;40.5;;;22.9;;
4325;SDS011;58429;49.826;10.880;2022-12-18T01:24:21;40.5;;;22.9;;
4325;SDS011;58429;49.826;10.880;2022-12-18T01:25:20;40.5;;;22.9;;
4325;SDS011;58429;49.826;10.880;2022-12-18T01:26:21;42;;;24;;
4325;SDS011;58429;49.826;10.880;2022-12-18T01:27:20;42;;;24;;
4325;SDS011;58429;49.826;10.880;2022-12-18T01:28:20;42;;;24;;
4325;SDS011;58429;49.826;10.880;2022-12-18T01:29:21;49.3;;;26.1;;
4325;SDS011;58429;49.826;10.880;2022-12-18T01:30:20;49.3;;;26.1;;
4325;SDS011;58429;49.826;10.880;2022-12-18T01:31:21;49.3;;;26.1;;
4325;SDS011;58429;49.826;10.880;2022-12-18T01:32:21;43.4;;;23.6;;
4325;SDS011;58429;49.826;10.880;2022-12-18T01:33:21;43.4;;;23.6;;
4325;SDS011;58429;49.826;10.880;2022-12-18T01:34:21;43.4;;;23.6;;
4325;SDS011;58429;49.826;10.880;2022-12-18T01:35:21;47.2;;;25.2;;
4325;SDS011;58429;49.826;10.880;2022-12-18T01:36:21;47.2;;;25.2;;
4325;SDS011;58429;49.826;10.880;2022-12-18T01:37:21;47.2;;;25.2;;
4325;SDS011;58429;49.826;10.880;2022-12-18T01:38:21;48.6;;;25.7;;
4325;SDS011;58429;49.826;10.880;2022-12-18T01:39:21;48.6;;;25.7;;
4325;SDS011;58429;49.826;10.880;2022-12-18T01:40:21;48.6;;;25.7;;
4325;SDS011;58429;49.826;10.880;2022-12-18T01:41:22;48.7;;;27;;
4325;SDS011;58429;49.826;10.880;2022-12-18T01:42:21;48.7;;;27;;
4325;SDS011;58429;49.826;10.880;2022-12-18T01:43:21;48.7;;;27;;
4325;SDS011;58429;49.826;10.880;2022-12-18T01:44:55;53.7;;;24.7;;
4325;SDS011;58429;49.826;10.880;2022-12-18T01:45:22;53.7;;;24.7;;
4325;SDS011;58429;49.826;10.880;2022-12-18T01:46:21;53.7;;;24.7;;
4325;SDS011;58429;49.826;10.880;2022-12-18T01:47:21;46.3;;;25.1;;
4325;SDS011;58429;49.826;10.880;2022-12-18T01:48:20;46.3;;;25.1;;
4325;SDS011;58429;49.826;10.880;2022-12-18T01:49:20;46.3;;;25.1;;
4325;SDS011;58429;49.826;10.880;2022-12-18T01:50:21;49.9;;;24;;
4325;SDS011;58429;49.826;10.880;2022-12-18T01:51:21;49.9;;;24;;
4325;SDS011;58429;49.826;10.880;2022-12-18T01:52:21;49.9;;;24;;
4325;SDS011;58429;49.826;10.880;2022-12-18T01:53:21;48.6;;;24.9;;
4325;SDS011;58429;49.826;10.880;2022-12-18T01:54:21;48.6;;;24.9;;
4325;SDS011;58429;49.826;10.880;2022-12-18T01:55:22;48.6;;;24.9;;
4325;SDS011;58429;49.826;10.880;2022-12-18T01:56:21;48.6;;;24.9;;
4325;SDS011;58429;49.826;10.880;2022-12-18T01:57:21;43.8;;;24.1;;
4325;SDS011;58429;49.826;10.880;2022-12-18T01:58:22;43.8;;;24.1;;
4325;SDS011;58429;49.826;10.880;2022-12-18T01:59:21;43.8;;;24.1;;
4325;SDS011;58429;49.826;10.880;2022-12-18T02:00:21;43.1;;;22.5;;
4325;SDS011;58429;49.826;10.880;2022-12-18T02:01:21;43.1;;;22.5;;
4325;SDS011;58429;49.826;10.880;2022-12-18T02:02:21;43.1;;;22.5;;
4325;SDS011;58429;49.826;10.880;2022-12-18T02:03:21;44.6;;;23.3;;
4325;SDS011;58429;49.826;10.880;2022-12-18T02:04:21;44.6;;;23.3;;
4325;SDS011;58429;49.826;10.880;2022-12-18T02:05:23;44.6;;;23.3;;
4325;SDS011;58429;49.826;10.880;2022-12-18T02:06:21;39;;;22.5;;
4325;SDS011;58429;49.826;10.880;2022-12-18T02:07:23;39;;;22.5;;
4325;SDS011;58429;49.826;10.880;2022-12-18T02:08:22;39;;;22.5;;
4325;SDS011;58429;49.826;10.880;2022-12-18T02:09:22;39.8;;;23.3;;
4325;SDS011;58429;49.826;10.880;2022-12-18T02:10:22;39.8;;;23.3;;
4325;SDS011;58429;49.826;10.880;2022-12-18T02:11:23;39.8;;;23.3;;
4325;SDS011;58429;49.826;10.880;2022-12-18T02:12:21;40.3;;;23.6;;
4325;SDS011;58429;49.826;10.880;2022-12-18T02:13:23;40.3;;;23.6;;
4325;SDS011;58429;49.826;10.880;2022-12-18T02:14:22;40.3;;;23.6;;
4325;SDS011;58429;49.826;10.880;2022-12-18T02:15:23;43.8;;;23.8;;
4325;SDS011;58429;49.826;10.880;2022-12-18T02:16:21;43.8;;;23.8;;
4325;SDS011;58429;49.826;10.880;2022-12-18T02:17:21;43.8;;;23.8;;
4325;SDS011;58429;49.826;10.880;2022-12-18T02:18:21;44.6;;;26;;
4325;SDS011;58429;49.826;10.880;2022-12-18T02:19:27;44.6;;;26;;
4325;SDS011;58429;49.826;10.880;2022-12-18T02:20:21;44.6;;;26;;
4325;SDS011;58429;49.826;10.880;2022-12-18T02:21:23;58;;;26.8;;
4325;SDS011;58429;49.826;10.880;2022-12-18T02:22:24;58;;;26.8;;
4325;SDS011;58429;49.826;10.880;2022-12-18T02:23:24;58;;;26.8;;
4325;SDS011;58429;49.826;10.880;2022-12-18T02:24:24;52.3;;;24.9;;
4325;SDS011;58429;49.826;10.880;2022-12-18T02:25:24;52.3;;;24.9;;
4325;SDS011;58429;49.826;10.880;2022-12-18T02:26:22;52.3;;;24.9;;
4325;SDS011;58429;49.826;10.880;2022-12-18T02:27:21;42.6;;;22.6;;
4325;SDS011;58429;49.826;10.880;2022-12-18T02:28:21;42.6;;;22.6;;
4325;SDS011;58429;49.826;10.880;2022-12-18T02:29:21;42.6;;;22.6;;
4325;SDS011;58429;49.826;10.880;2022-12-18T02:30:21;46.4;;;22;;
4325;SDS011;58429;49.826;10.880;2022-12-18T02:31:21;46.4;;;22;;
4325;SDS011;58429;49.826;10.880;2022-12-18T02:32:22;46.4;;;22;;
4325;SDS011;58429;49.826;10.880;2022-12-18T02:33:21;68.3;;;28;;
4325;SDS011;58429;49.826;10.880;2022-12-18T02:34:21;68.3;;;28;;
4325;SDS011;58429;49.826;10.880;2022-12-18T02:35:22;68.3;;;28;;
4325;SDS011;58429;49.826;10.880;2022-12-18T02:36:21;50.5;;;23.9;;
4325;SDS011;58429;49.826;10.880;2022-12-18T02:37:21;50.5;;;23.9;;
4325;SDS011;58429;49.826;10.880;2022-12-18T02:38:21;50.5;;;23.9;;
4325;SDS011;58429;49.826;10.880;2022-12-18T02:39:21;40.1;;;21.7;;
4325;SDS011;58429;49.826;10.880;2022-12-18T02:40:21;40.1;;;21.7;;
4325;SDS011;58429;49.826;10.880;2022-12-18T02:41:23;40.1;;;21.7;;
4325;SDS011;58429;49.826;10.880;2022-12-18T02:42:21;37.8;;;20.3;;
4325;SDS011;58429;49.826;10.880;2022-12-18T02:43:21;37.8;;;20.3;;
4325;SDS011;58429;49.826;10.880;2022-12-18T02:44:21;37.8;;;20.3;;
4325;SDS011;58429;49.826;10.880;2022-12-18T02:45:21;47.2;;;22.6;;
4325;SDS011;58429;49.826;10.880;2022-12-18T02:46:24;47.2;;;22.6;;
4325;SDS011;58429;49.826;10.880;2022-12-18T02:47:21;47.2;;;22.6;;
4325;SDS011;58429;49.826;10.880;2022-12-18T02:48:22;42;;;22.2;;
4325;SDS011;58429;49.826;10.880;2022-12-18T02:49:23;42;;;22.2;;
4325;SDS011;58429;49.826;10.880;2022-12-18T02:50:22;42;;;22.2;;
4325;SDS011;58429;49.826;10.880;2022-12-18T02:51:22;45.1;;;22.2;;
4325;SDS011;58429;49.826;10.880;2022-12-18T02:52:24;45.1;;;22.2;;
4325;SDS011;58429;49.826;10.880;2022-12-18T02:53:22;45.1;;;22.2;;
4325;SDS011;58429;49.826;10.880;2022-12-18T02:54:23;37;;;20;;
4325;SDS011;58429;49.826;10.880;2022-12-18T02:55:24;37;;;20;;
4325;SDS011;58429;49.826;10.880;2022-12-18T02:56:21;37;;;20;;
4325;SDS011;58429;49.826;10.880;2022-12-18T02:57:23;45.6;;;22.4;;
4325;SDS011;58429;49.826;10.880;2022-12-18T02:58:24;45.6;;;22.4;;
4325;SDS011;58429;49.826;10.880;2022-12-18T02:59:21;45.6;;;22.4;;
4325;SDS011;58429;49.826;10.880;2022-12-18T03:00:21;49.3;;;23.6;;
4325;SDS011;58429;49.826;10.880;2022-12-18T03:01:21;49.3;;;23.6;;
4325;SDS011;58429;49.826;10.880;2022-12-18T03:02:21;49.3;;;23.6;;
4325;SDS011;58429;49.826;10.880;2022-12-18T03:03:22;45.1;;;21.6;;
4325;SDS011;58429;49.826;10.880;2022-12-18T03:04:22;45.1;;;21.6;;
4325;SDS011;58429;49.826;10.880;2022-12-18T03:05:22;45.1;;;21.6;;
4325;SDS011;58429;49.826;10.880;2022-12-18T03:06:22;43.6;;;22.9;;
4325;SDS011;58429;49.826;10.880;2022-12-18T03:07:23;43.6;;;22.9;;
4325;SDS011;58429;49.826;10.880;2022-12-18T03:08:22;43.6;;;22.9;;
4325;SDS011;58429;49.826;10.880;2022-12-18T03:09:21;41.6;;;21.7;;
4325;SDS011;58429;49.826;10.880;2022-12-18T03:10:23;41.6;;;21.7;;
4325;SDS011;58429;49.826;10.880;2022-12-18T03:11:21;41.6;;;21.7;;
4325;SDS011;58429;49.826;10.880;2022-12-18T03:12:22;44;;;21.3;;
4325;SDS011;58429;49.826;10.880;2022-12-18T03:13:23;44;;;21.3;;
4325;SDS011;58429;49.826;10.880;2022-12-18T03:14:21;44;;;21.3;;
4325;SDS011;58429;49.826;10.880;2022-12-18T03:15:22;41.1;;;21.9;;
4325;SDS011;58429;49.826;10.880;2022-12-18T03:16:22;41.1;;;21.9;;
4325;SDS011;58429;49.826;10.880;2022-12-18T03:17:22;41.1;;;21.9;;
4325;SDS011;58429;49.826;10.880;2022-12-18T03:18:21;40.9;;;22;;
4325;SDS011;58429;49.826;10.880;2022-12-18T03:19:21;40.9;;;22;;
4325;SDS011;58429;49.826;10.880;2022-12-18T03:20:21;40.9;;;22;;
4325;SDS011;58429;49.826;10.880;2022-12-18T03:21:21;35.6;;;20.9;;
4325;SDS011;58429;49.826;10.880;2022-12-18T03:22:21;35.6;;;20.9;;
4325;SDS011;58429;49.826;10.880;2022-12-18T03:23:21;35.6;;;20.9;;
4325;SDS011;58429;49.826;10.880;2022-12-18T03:24:21;40.7;;;21.8;;
4325;SDS011;58429;49.826;10.880;2022-12-18T03:25:21;40.7;;;21.8;;
4325;SDS011;58429;49.826;10.880;2022-12-18T03:26:21;40.7;;;21.8;;
4325;SDS011;58429;49.826;10.880;2022-12-18T03:27:21;43.1;;;23.8;;
4325;SDS011;58429;49.826;10.880;2022-12-18T03:28:21;43.1;;;23.8;;
4325;SDS011;58429;49.826;10.880;2022-12-18T03:29:22;43.1;;;23.8;;
4325;SDS011;58429;49.826;10.880;2022-12-18T03:30:21;43.1;;;23.8;;
4325;SDS011;58429;49.826;10.880;2022-12-18T03:31:21;42.8;;;23.1;;
4325;SDS011;58429;49.826;10.880;2022-12-18T03:32:31;42.8;;;23.1;;
4325;SDS011;58429;49.826;10.880;2022-12-18T03:33:23;42.8;;;23.1;;
4325;SDS011;58429;49.826;10.880;2022-12-18T03:34:21;42.7;;;23.4;;
4325;SDS011;58429;49.826;10.880;2022-12-18T03:35:22;42.7;;;23.4;;
4325;SDS011;58429;49.826;10.880;2022-12-18T03:36:21;42.7;;;23.4;;
4325;SDS011;58429;49.826;10.880;2022-12-18T03:37:21;39;;;21;;
4325;SDS011;58429;49.826;10.880;2022-12-18T03:38:21;39;;;21;;
4325;SDS011;58429;49.826;10.880;2022-12-18T03:39:21;39;;;21;;
4325;SDS011;58429;49.826;10.880;2022-12-18T03:40:21;39.6;;;22.2;;
4325;SDS011;58429;49.826;10.880;2022-12-18T03:41:23;39.6;;;22.2;;
4325;SDS011;58429;49.826;10.880;2022-12-18T03:42:22;39.6;;;22.2;;
4325;SDS011;58429;49.826;10.880;2022-12-18T03:43:26;41.6;;;21.5;;
4325;SDS011;58429;49.826;10.880;2022-12-18T03:44:23;41.6;;;21.5;;
4325;SDS011;58429;49.826;10.880;2022-12-18T03:45:22;41.6;;;21.5;;
4325;SDS011;58429;49.826;10.880;2022-12-18T03:46:24;37.8;;;20.8;;
4325;SDS011;58429;49.826;10.880;2022-12-18T03:47:22;37.8;;;20.8;;
4325;SDS011;58429;49.826;10.880;2022-12-18T03:48:23;37.8;;;20.8;;
4325;SDS011;58429;49.826;10.880;2022-12-18T03:49:23;37.6;;;21.2;;
4325;SDS011;58429;49.826;10.880;2022-12-18T03:50:22;37.6;;;21.2;;
4325;SDS011;58429;49.826;10.880;2022-12-18T03:51:23;37.6;;;21.2;;
4325;SDS011;58429;49.826;10.880;2022-12-18T03:52:22;35.7;;;19.9;;
4325;SDS011;58429;49.826;10.880;2022-12-18T03:53:24;35.7;;;19.9;;
4325;SDS011;58429;49.826;10.880;2022-12-18T03:54:21;35.7;;;19.9;;
4325;SDS011;58429;49.826;10.880;2022-12-18T03:55:21;35.5;;;20.5;;
4325;SDS011;58429;49.826;10.880;2022-12-18T03:56:21;35.5;;;20.5;;
4325;SDS011;58429;49.826;10.880;2022-12-18T03:57:21;35.5;;;20.5;;
4325;SDS011;58429;49.826;10.880;2022-12-18T03:58:22;36.2;;;20;;
4325;SDS011;58429;49.826;10.880;2022-12-18T03:59:21;36.2;;;20;;
4325;SDS011;58429;49.826;10.880;2022-12-18T04:00:21;36.2;;;20;;
4325;SDS011;58429;49.826;10.880;2022-12-18T04:01:24;36.7;;;20.2;;
4325;SDS011;58429;49.826;10.880;2022-12-18T04:02:21;36.7;;;20.2;;
4325;SDS011;58429;49.826;10.880;2022-12-18T04:03:21;36.7;;;20.2;;
4325;SDS011;58429;49.826;10.880;2022-12-18T04:04:21;39.3;;;21.2;;
4325;SDS011;58429;49.826;10.880;2022-12-18T04:05:21;39.3;;;21.2;;
4325;SDS011;58429;49.826;10.880;2022-12-18T04:06:21;39.3;;;21.2;;
4325;SDS011;58429;49.826;10.880;2022-12-18T04:07:21;37.7;;;20.7;;
4325;SDS011;58429;49.826;10.880;2022-12-18T04:08:21;37.7;;;20.7;;
4325;SDS011;58429;49.826;10.880;2022-12-18T04:09:21;37.7;;;20.7;;
4325;SDS011;58429;49.826;10.880;2022-12-18T04:10:21;34.5;;;21;;
4325;SDS011;58429;49.826;10.880;2022-12-18T04:11:21;34.5;;;21;;
4325;SDS011;58429;49.826;10.880;2022-12-18T04:12:21;34.5;;;21;;
4325;SDS011;58429;49.826;10.880;2022-12-18T04:13:21;41.2;;;21.2;;
4325;SDS011;58429;49.826;10.880;2022-12-18T04:14:21;41.2;;;21.2;;
4325;SDS011;58429;49.826;10.880;2022-12-18T04:15:21;41.2;;;21.2;;
4325;SDS011;58429;49.826;10.880;2022-12-18T04:16:21;34.6;;;20.8;;
4325;SDS011;58429;49.826;10.880;2022-12-18T04:17:21;34.6;;;20.8;;
4325;SDS011;58429;49.826;10.880;2022-12-18T04:18:21;34.6;;;20.8;;
4325;SDS011;58429;49.826;10.880;2022-12-18T04:19:21;40.1;;;20.6;;
4325;SDS011;58429;49.826;10.880;2022-12-18T04:20:21;40.1;;;20.6;;
4325;SDS011;58429;49.826;10.880;2022-12-18T04:21:21;40.1;;;20.6;;
4325;SDS011;58429;49.826;10.880;2022-12-18T04:22:21;36;;;20.7;;
4325;SDS011;58429;49.826;10.880;2022-12-18T04:23:21;36;;;20.7;;
4325;SDS011;58429;49.826;10.880;2022-12-18T04:24:21;36;;;20.7;;
4325;SDS011;58429;49.826;10.880;2022-12-18T04:25:21;41.5;;;22.2;;
4325;SDS011;58429;49.826;10.880;2022-12-18T04:26:21;41.5;;;22.2;;
4325;SDS011;58429;49.826;10.880;2022-12-18T04:27:21;41.5;;;22.2;;
4325;SDS011;58429;49.826;10.880;2022-12-18T04:28:21;41.2;;;24.8;;
4325;SDS011;58429;49.826;10.880;2022-12-18T04:29:21;41.2;;;24.8;;
4325;SDS011;58429;49.826;10.880;2022-12-18T04:30:21;41.2;;;24.8;;
4325;SDS011;58429;49.826;10.880;2022-12-18T04:31:21;42.8;;;23.5;;
4325;SDS011;58429;49.826;10.880;2022-12-18T04:32:21;42.8;;;23.5;;
4325;SDS011;58429;49.826;10.880;2022-12-18T04:33:21;42.8;;;23.5;;
4325;SDS011;58429;49.826;10.880;2022-12-18T04:34:21;42.7;;;22.9;;
4325;SDS011;58429;49.826;10.880;2022-12-18T04:35:21;42.7;;;22.9;;
4325;SDS011;58429;49.826;10.880;2022-12-18T04:36:21;42.7;;;22.9;;
4325;SDS011;58429;49.826;10.880;2022-12-18T04:37:21;38.6;;;21;;
4325;SDS011;58429;49.826;10.880;2022-12-18T04:38:21;38.6;;;21;;
4325;SDS011;58429;49.826;10.880;2022-12-18T04:39:21;38.6;;;21;;
4325;SDS011;58429;49.826;10.880;2022-12-18T04:40:21;40.6;;;22.5;;
4325;SDS011;58429;49.826;10.880;2022-12-18T04:41:21;40.6;;;22.5;;
4325;SDS011;58429;49.826;10.880;2022-12-18T04:42:21;40.6;;;22.5;;
4325;SDS011;58429;49.826;10.880;2022-12-18T04:43:21;42.6;;;22.4;;
4325;SDS011;58429;49.826;10.880;2022-12-18T04:44:21;42.6;;;22.4;;
4325;SDS011;58429;49.826;10.880;2022-12-18T04:45:21;42.6;;;22.4;;
4325;SDS011;58429;49.826;10.880;2022-12-18T04:46:21;41;;;21.3;;
4325;SDS011;58429;49.826;10.880;2022-12-18T04:47:21;41;;;21.3;;
4325;SDS011;58429;49.826;10.880;2022-12-18T04:48:21;41;;;21.3;;
4325;SDS011;58429;49.826;10.880;2022-12-18T04:49:21;37.6;;;20.9;;
4325;SDS011;58429;49.826;10.880;2022-12-18T04:50:21;37.6;;;20.9;;
4325;SDS011;58429;49.826;10.880;2022-12-18T04:51:21;37.6;;;20.9;;
4325;SDS011;58429;49.826;10.880;2022-12-18T04:52:21;39.7;;;20.8;;
4325;SDS011;58429;49.826;10.880;2022-12-18T04:53:21;39.7;;;20.8;;
4325;SDS011;58429;49.826;10.880;2022-12-18T04:54:21;39.7;;;20.8;;
4325;SDS011;58429;49.826;10.880;2022-12-18T04:55:21;35.9;;;20.6;;
4325;SDS011;58429;49.826;10.880;2022-12-18T04:56:21;35.9;;;20.6;;
4325;SDS011;58429;49.826;10.880;2022-12-18T04:57:21;35.9;;;20.6;;
4325;SDS011;58429;49.826;10.880;2022-12-18T04:58:21;41.8;;;21.7;;
4325;SDS011;58429;49.826;10.880;2022-12-18T04:59:21;41.8;;;21.7;;
4325;SDS011;58429;49.826;10.880;2022-12-18T05:00:21;41.8;;;21.7;;
4325;SDS011;58429;49.826;10.880;2022-12-18T05:01:21;40.9;;;22;;
4325;SDS011;58429;49.826;10.880;2022-12-18T05:02:21;40.9;;;22;;
4325;SDS011;58429;49.826;10.880;2022-12-18T05:03:21;40.9;;;22;;
4325;SDS011;58429;49.826;10.880;2022-12-18T05:04:21;40.9;;;22;;
4325;SDS011;58429;49.826;10.880;2022-12-18T05:05:21;42.1;;;21.8;;
4325;SDS011;58429;49.826;10.880;2022-12-18T05:06:21;42.1;;;21.8;;
4325;SDS011;58429;49.826;10.880;2022-12-18T05:07:21;42.1;;;21.8;;
4325;SDS011;58429;49.826;10.880;2022-12-18T05:08:21;41.1;;;21.7;;
4325;SDS011;58429;49.826;10.880;2022-12-18T05:09:21;41.1;;;21.7;;
4325;SDS011;58429;49.826;10.880;2022-12-18T05:10:21;41.1;;;21.7;;
4325;SDS011;58429;49.826;10.880;2022-12-18T05:11:21;37;;;21;;
4325;SDS011;58429;49.826;10.880;2022-12-18T05:12:21;37;;;21;;
4325;SDS011;58429;49.826;10.880;2022-12-18T05:13:21;37;;;21;;
4325;SDS011;58429;49.826;10.880;2022-12-18T05:14:21;41.4;;;21.2;;
4325;SDS011;58429;49.826;10.880;2022-12-18T05:15:21;41.4;;;21.2;;
4325;SDS011;58429;49.826;10.880;2022-12-18T05:16:21;41.4;;;21.2;;
4325;SDS011;58429;49.826;10.880;2022-12-18T05:17:21;38;;;21.1;;
4325;SDS011;58429;49.826;10.880;2022-12-18T05:18:21;38;;;21.1;;
4325;SDS011;58429;49.826;10.880;2022-12-18T05:19:21;38;;;21.1;;
4325;SDS011;58429;49.826;10.880;2022-12-18T05:20:21;37.7;;;21.4;;
4325;SDS011;58429;49.826;10.880;2022-12-18T05:21:21;37.7;;;21.4;;
4325;SDS011;58429;49.826;10.880;2022-12-18T05:22:21;37.7;;;21.4;;
4325;SDS011;58429;49.826;10.880;2022-12-18T05:23:22;37.7;;;20.2;;
4325;SDS011;58429;49.826;10.880;2022-12-18T05:24:21;37.7;;;20.2;;
4325;SDS011;58429;49.826;10.880;2022-12-18T05:25:21;37.7;;;20.2;;
4325;SDS011;58429;49.826;10.880;2022-12-18T05:26:21;38.1;;;20.9;;
4325;SDS011;58429;49.826;10.880;2022-12-18T05:27:21;38.1;;;20.9;;
4325;SDS011;58429;49.826;10.880;2022-12-18T05:28:21;38.1;;;20.9;;
4325;SDS011;58429;49.826;10.880;2022-12-18T05:29:21;41.2;;;21.9;;
4325;SDS011;58429;49.826;10.880;2022-12-18T05:30:21;41.2;;;21.9;;
4325;SDS011;58429;49.826;10.880;2022-12-18T05:31:21;41.2;;;21.9;;
4325;SDS011;58429;49.826;10.880;2022-12-18T05:32:21;42.2;;;22.5;;
4325;SDS011;58429;49.826;10.880;2022-12-18T05:33:21;42.2;;;22.5;;
4325;SDS011;58429;49.826;10.880;2022-12-18T05:34:21;42.2;;;22.5;;
4325;SDS011;58429;49.826;10.880;2022-12-18T05:35:21;44.4;;;23.3;;
4325;SDS011;58429;49.826;10.880;2022-12-18T05:36:21;44.4;;;23.3;;
4325;SDS011;58429;49.826;10.880;2022-12-18T05:37:21;44.4;;;23.3;;
4325;SDS011;58429;49.826;10.880;2022-12-18T05:38:21;46.8;;;24.1;;
4325;SDS011;58429;49.826;10.880;2022-12-18T05:39:21;46.8;;;24.1;;
4325;SDS011;58429;49.826;10.880;2022-12-18T05:40:21;46.8;;;24.1;;
4325;SDS011;58429;49.826;10.880;2022-12-18T05:41:21;42.1;;;22.2;;
4325;SDS011;58429;49.826;10.880;2022-12-18T05:42:21;42.1;;;22.2;;
4325;SDS011;58429;49.826;10.880;2022-12-18T05:43:21;42.1;;;22.2;;
4325;SDS011;58429;49.826;10.880;2022-12-18T05:44:21;37.3;;;20;;
4325;SDS011;58429;49.826;10.880;2022-12-18T05:45:21;37.3;;;20;;
4325;SDS011;58429;49.826;10.880;2022-12-18T05:46:21;37.3;;;20;;
4325;SDS011;58429;49.826;10.880;2022-12-18T05:47:21;36.9;;;19.6;;
4325;SDS011;58429;49.826;10.880;2022-12-18T05:48:21;36.9;;;19.6;;
4325;SDS011;58429;49.826;10.880;2022-12-18T05:49:21;36.9;;;19.6;;
4325;SDS011;58429;49.826;10.880;2022-12-18T05:50:21;38.2;;;20.3;;
4325;SDS011;58429;49.826;10.880;2022-12-18T05:51:21;38.2;;;20.3;;
4325;SDS011;58429;49.826;10.880;2022-12-18T05:52:21;38.2;;;20.3;;
4325;SDS011;58429;49.826;10.880;2022-12-18T05:53:21;38.2;;;21.3;;
4325;SDS011;58429;49.826;10.880;2022-12-18T05:54:21;38.2;;;21.3;;
4325;SDS011;58429;49.826;10.880;2022-12-18T05:55:21;38.2;;;21.3;;
4325;SDS011;58429;49.826;10.880;2022-12-18T05:56:21;34.8;;;19.8;;
4325;SDS011;58429;49.826;10.880;2022-12-18T05:57:21;34.8;;;19.8;;
4325;SDS011;58429;49.826;10.880;2022-12-18T05:58:21;34.8;;;19.8;;
4325;SDS011;58429;49.826;10.880;2022-12-18T05:59:21;35.1;;;20.8;;
4325;SDS011;58429;49.826;10.880;2022-12-18T06:00:21;35.1;;;20.8;;
4325;SDS011;58429;49.826;10.880;2022-12-18T06:01:22;35.1;;;20.8;;
4325;SDS011;58429;49.826;10.880;2022-12-18T06:02:21;33.2;;;19.2;;
4325;SDS011;58429;49.826;10.880;2022-12-18T06:03:21;33.2;;;19.2;;